createdAt,value
2023-04-16T00:00:53.817Z,77.84
2023-04-16T00:04:57.179Z,77.74
2023-04-16T00:09:00.459Z,77.56
2023-04-16T00:13:03.599Z,77.60
2023-04-16T00:17:08.432Z,77.58
2023-04-16T00:21:11.664Z,77.76
2023-04-16T00:25:15.638Z,77.59
2023-04-16T00:29:18.709Z,77.55
2023-04-16T00:33:24.759Z,77.29
2023-04-16T00:37:27.839Z,77.35
2023-04-16T00:41:30.976Z,77.22
2023-04-16T00:45:34.367Z,77.20
2023-04-16T00:49:39.434Z,77.05
2023-04-16T00:53:43.133Z,77.06
2023-04-16T00:57:46.419Z,77.61
2023-04-16T01:01:49.596Z,77.87
2023-04-16T01:05:54.167Z,78.07
2023-04-16T01:09:57.449Z,78.34
2023-04-16T01:14:00.484Z,78.46
2023-04-16T01:18:04.114Z,78.86
2023-04-16T01:22:29.002Z,78.75
2023-04-16T01:26:32.321Z,79.19
2023-04-16T01:30:35.384Z,80.45
2023-04-16T01:34:46.049Z,79.98
2023-04-16T01:38:51.240Z,80.04
2023-04-16T01:42:54.338Z,80.93
2023-04-16T01:46:57.762Z,80.80
2023-04-16T01:51:01.877Z,80.90
2023-04-16T01:55:07.306Z,80.74
2023-04-16T01:59:10.964Z,80.80
2023-04-16T02:03:17.750Z,80.45
2023-04-16T02:07:21.034Z,80.34
2023-04-16T02:11:25.690Z,80.12
2023-04-16T02:15:29.263Z,79.72
2023-04-16T02:19:32.557Z,79.67
2023-04-16T02:23:36.167Z,79.54
2023-04-16T02:27:41.545Z,79.58
2023-04-16T02:31:59.644Z,79.35
2023-04-16T02:36:03.853Z,78.85
2023-04-16T02:40:08.187Z,79.09
2023-04-16T02:44:12.651Z,79.42
2023-04-16T02:48:15.871Z,79.41
2023-04-16T02:52:18.975Z,79.67
2023-04-16T02:56:22.073Z,79.52
2023-04-16T03:00:26.720Z,79.84
2023-04-16T03:04:29.791Z,79.78
2023-04-16T03:08:32.896Z,79.71
2023-04-16T03:12:36.069Z,79.90
2023-04-16T03:16:44.307Z,79.70
2023-04-16T03:20:47.387Z,79.68
2023-04-16T03:24:50.970Z,79.87
2023-04-16T03:28:54.311Z,79.82
2023-04-16T03:32:59.205Z,79.80
2023-04-16T03:37:02.371Z,80.01
2023-04-16T03:41:05.560Z,80.17
2023-04-16T03:45:10.981Z,79.91
2023-04-16T03:49:16.702Z,79.77
2023-04-16T03:53:19.960Z,79.67
2023-04-16T03:57:24.429Z,79.71
2023-04-16T04:01:30.327Z,79.67
2023-04-16T04:05:38.402Z,79.71
2023-04-16T04:09:41.906Z,79.55
2023-04-16T04:13:45.050Z,79.28
2023-04-16T04:17:48.244Z,79.23
2023-04-16T04:21:53.079Z,79.23
2023-04-16T04:25:56.398Z,79.24
2023-04-16T04:30:00.920Z,79.50
2023-04-16T04:34:04.534Z,79.54
2023-04-16T04:38:09.078Z,79.60
2023-04-16T04:42:12.358Z,80.00
2023-04-16T04:46:15.801Z,80.05
2023-04-16T04:50:19.085Z,80.15
2023-04-16T04:54:24.574Z,80.37
2023-04-16T04:58:29.665Z,80.56
2023-04-16T05:02:33.367Z,80.82
2023-04-16T05:06:36.585Z,80.85
2023-04-16T05:10:41.049Z,80.81
2023-04-16T05:14:44.164Z,80.82
2023-04-16T05:18:47.405Z,81.00
2023-04-16T05:22:50.734Z,81.00
2023-04-16T05:26:56.818Z,81.17
2023-04-16T05:31:00.117Z,81.42
2023-04-16T05:35:03.223Z,81.56
2023-04-16T05:39:07.736Z,81.74
2023-04-16T05:43:12.271Z,82.06
2023-04-16T05:47:15.605Z,82.05
2023-04-16T05:51:18.824Z,82.35
2023-04-16T05:55:22.086Z,82.33
2023-04-16T05:59:26.650Z,82.55
2023-04-16T06:03:30.179Z,82.61
2023-04-16T06:07:33.593Z,82.89
2023-04-16T06:11:36.734Z,82.88
2023-04-16T06:15:41.353Z,82.83
2023-04-16T06:19:44.392Z,82.77
2023-04-16T06:23:47.435Z,82.78
2023-04-16T06:27:51.018Z,83.21
2023-04-16T06:31:55.906Z,83.29
2023-04-16T06:35:58.997Z,83.33
2023-04-16T06:40:02.154Z,83.43
2023-04-16T06:44:05.339Z,83.49
2023-04-16T06:48:09.812Z,83.30
2023-04-16T06:52:13.025Z,83.36
2023-04-16T06:56:16.133Z,82.98
2023-04-16T07:00:19.916Z,82.80
2023-04-16T07:04:24.551Z,82.77
2023-04-16T07:08:27.583Z,82.71
2023-04-16T07:12:31.538Z,82.62
2023-04-16T07:16:34.774Z,82.28
2023-04-16T07:20:39.273Z,82.36
2023-04-16T07:24:42.353Z,82.04
2023-04-16T07:28:45.544Z,82.22
2023-04-16T07:32:48.856Z,81.86
2023-04-16T07:36:53.357Z,81.80
2023-04-16T07:40:57.215Z,81.64
2023-04-16T07:45:00.268Z,81.50
2023-04-16T07:49:03.293Z,81.42
2023-04-16T07:53:07.901Z,81.45
2023-04-16T07:57:11.605Z,80.98
2023-04-16T08:01:15.278Z,80.69
2023-04-16T08:05:18.538Z,80.71
2023-04-16T08:09:24.570Z,79.73
2023-04-16T08:13:27.671Z,79.51
2023-04-16T08:17:30.805Z,79.61
2023-04-16T08:21:34.462Z,79.27
2023-04-16T08:25:38.879Z,78.21
2023-04-16T08:29:42.142Z,77.06
2023-04-16T08:33:45.376Z,77.10
2023-04-16T08:37:48.501Z,76.82
2023-04-16T08:41:55.527Z,75.89
2023-04-16T08:45:59.228Z,75.73
2023-04-16T08:50:04.230Z,75.41
2023-04-16T08:54:10.683Z,74.12
2023-04-16T08:58:16.242Z,73.09
2023-04-16T09:02:19.713Z,72.79
2023-04-16T09:06:23.391Z,71.55
2023-04-16T09:10:28.200Z,70.90
2023-04-16T09:14:32.657Z,70.77
2023-04-16T09:18:35.982Z,71.54
2023-04-16T09:22:40.132Z,71.22
2023-04-16T09:26:44.451Z,69.27
2023-04-16T09:30:49.060Z,67.49
2023-04-16T09:34:57.338Z,67.82
2023-04-16T09:39:01.245Z,68.05
2023-04-16T09:43:12.090Z,67.14
2023-04-16T09:47:16.555Z,66.40
2023-04-16T09:51:19.575Z,66.51
2023-04-16T09:55:24.865Z,66.36
2023-04-16T09:59:31.216Z,66.79
2023-04-16T10:03:37.030Z,66.39
2023-04-16T10:07:40.523Z,65.94
2023-04-16T10:11:43.937Z,64.66
2023-04-16T10:15:48.892Z,64.06
2023-04-16T10:19:54.408Z,63.48
2023-04-16T10:23:57.534Z,63.42
2023-04-16T10:28:01.599Z,63.33
2023-04-16T10:32:05.130Z,63.45
2023-04-16T10:36:11.928Z,62.13
2023-04-16T10:40:25.194Z,62.38
2023-04-16T10:44:32.426Z,60.98
2023-04-16T10:48:48.777Z,60.97
2023-04-16T10:53:19.771Z,60.09
2023-04-16T10:57:22.787Z,60.31
2023-04-16T11:01:36.462Z,60.87
2023-04-16T11:05:47.844Z,60.47
2023-04-16T11:09:57.801Z,59.11
2023-04-16T11:14:01.393Z,59.75
2023-04-16T11:18:07.031Z,59.85
2023-04-16T11:22:12.954Z,59.38
2023-04-16T11:26:27.736Z,59.70
2023-04-16T11:30:32.319Z,58.99
2023-04-16T11:34:35.619Z,58.96
2023-04-16T11:38:41.224Z,59.20
2023-04-16T11:42:45.885Z,58.79
2023-04-16T11:46:49.478Z,58.29
2023-04-16T11:50:58.066Z,58.68
2023-04-16T11:55:01.401Z,57.46
2023-04-16T11:59:14.219Z,57.72
2023-04-16T12:03:17.695Z,58.07
2023-04-16T12:07:21.218Z,57.88
2023-04-16T12:11:39.270Z,56.98
2023-04-16T12:15:48.241Z,56.23
2023-04-16T12:19:52.800Z,56.36
2023-04-16T12:23:55.841Z,57.06
2023-04-16T12:27:59.422Z,56.76
2023-04-16T12:32:03.846Z,55.95
2023-04-16T12:36:18.689Z,55.90
2023-04-16T12:40:21.718Z,55.46
2023-04-16T12:44:24.711Z,56.00
2023-04-16T12:48:29.335Z,56.04
2023-04-16T12:52:32.561Z,54.97
2023-04-16T12:56:36.313Z,55.02
2023-04-16T13:00:39.899Z,55.66
2023-04-16T13:04:44.451Z,55.61
2023-04-16T13:08:47.813Z,55.16
2023-04-16T13:12:50.970Z,55.41
2023-04-16T13:16:54.075Z,54.76
2023-04-16T13:20:59.434Z,55.15
2023-04-16T13:25:02.508Z,56.01
2023-04-16T13:29:05.532Z,55.96
2023-04-16T13:33:09.342Z,55.37
2023-04-16T13:37:13.930Z,55.78
2023-04-16T13:41:16.951Z,56.41
2023-04-16T13:45:21.111Z,56.50
2023-04-16T13:49:24.462Z,57.08
2023-04-16T13:53:28.851Z,57.17
2023-04-16T13:57:32.162Z,57.29
2023-04-16T14:01:35.533Z,57.63
2023-04-16T14:05:38.731Z,57.44
2023-04-16T14:09:43.222Z,57.73
2023-04-16T14:13:46.826Z,58.48
2023-04-16T14:17:49.923Z,58.70
2023-04-16T14:21:52.988Z,58.98
2023-04-16T14:25:57.393Z,58.74
2023-04-16T14:30:00.584Z,59.24
2023-04-16T14:34:04.017Z,58.67
2023-04-16T14:38:07.148Z,58.84
2023-04-16T14:42:11.727Z,58.97
2023-04-16T14:46:17.744Z,58.99
2023-04-16T14:50:20.987Z,59.26
2023-04-16T14:54:24.137Z,59.74
2023-04-16T14:58:28.586Z,59.91
2023-04-16T15:02:31.949Z,59.95
2023-04-16T15:06:35.988Z,60.09
2023-04-16T15:10:39.217Z,60.31
2023-04-16T15:14:43.763Z,60.97
2023-04-16T15:18:46.847Z,61.10
2023-04-16T15:22:49.874Z,61.22
2023-04-16T15:26:53.124Z,61.63
2023-04-16T15:30:58.511Z,61.65
2023-04-16T15:35:04.860Z,61.93
2023-04-16T15:39:08.712Z,61.63
2023-04-16T15:43:11.904Z,61.47
2023-04-16T15:47:16.309Z,61.71
2023-04-16T15:51:19.406Z,62.12
2023-04-16T15:55:22.484Z,62.17
2023-04-16T15:59:25.709Z,62.17
2023-04-16T16:03:32.261Z,62.44
2023-04-16T16:07:35.494Z,62.33
2023-04-16T16:11:38.973Z,62.04
2023-04-16T16:15:42.189Z,62.30
2023-04-16T16:19:46.733Z,62.47
2023-04-16T16:23:49.824Z,62.52
2023-04-16T16:27:52.975Z,62.40
2023-04-16T16:31:56.110Z,62.64
2023-04-16T16:36:00.619Z,62.28
2023-04-16T16:40:04.478Z,62.08
2023-04-16T16:44:07.511Z,62.37
2023-04-16T16:48:10.754Z,61.88
2023-04-16T16:52:15.174Z,62.20
2023-04-16T16:56:18.382Z,62.29
2023-04-16T17:00:22.224Z,61.99
2023-04-16T17:04:25.687Z,62.24
2023-04-16T17:08:30.187Z,62.22
2023-04-16T17:12:33.267Z,62.29
2023-04-16T17:16:36.561Z,62.64
2023-04-16T17:20:39.728Z,62.72
2023-04-16T17:24:44.258Z,63.55
2023-04-16T17:28:47.358Z,63.72
2023-04-16T17:32:50.514Z,64.41
2023-04-16T17:36:53.982Z,65.02
2023-04-16T17:40:58.719Z,65.90
2023-04-16T17:45:01.944Z,66.21
2023-04-16T17:49:05.012Z,66.94
2023-04-16T17:53:08.060Z,67.27
2023-04-16T17:57:12.639Z,67.90
2023-04-16T18:01:15.702Z,68.44
2023-04-16T18:05:19.193Z,69.14
2023-04-16T18:09:22.232Z,69.27
2023-04-16T18:13:27.305Z,69.51
2023-04-16T18:17:30.567Z,70.01
2023-04-16T18:21:34.027Z,70.71
2023-04-16T18:25:37.528Z,70.84
2023-04-16T18:29:44.740Z,71.16
2023-04-16T18:33:56.403Z,71.64
2023-04-16T18:38:00.364Z,71.68
2023-04-16T18:42:03.908Z,72.00
2023-04-16T18:46:08.639Z,71.97
2023-04-16T18:50:11.982Z,71.94
2023-04-16T18:54:14.993Z,72.66
2023-04-16T18:58:18.295Z,72.71
2023-04-16T19:02:22.750Z,72.69
2023-04-16T19:06:27.631Z,72.40
2023-04-16T19:10:30.968Z,72.29
2023-04-16T19:14:34.212Z,72.34
2023-04-16T19:18:39.740Z,72.34
2023-04-16T19:22:43.002Z,72.23
2023-04-16T19:26:46.296Z,72.14
2023-04-16T19:30:51.523Z,72.50
2023-04-16T19:34:56.237Z,72.33
2023-04-16T19:38:59.391Z,72.25
2023-04-16T19:43:02.602Z,72.40
2023-04-16T19:47:06.972Z,72.66
2023-04-16T19:51:11.852Z,72.50
2023-04-16T19:55:15.061Z,72.58
2023-04-16T19:59:18.506Z,72.90
2023-04-16T20:03:21.647Z,72.67
2023-04-16T20:07:26.289Z,72.80
2023-04-16T20:11:29.442Z,72.59
2023-04-16T20:15:32.530Z,73.00
2023-04-16T20:19:37.902Z,72.77
2023-04-16T20:23:42.428Z,73.11
2023-04-16T20:27:45.901Z,73.38
2023-04-16T20:31:49.176Z,73.12
2023-04-16T20:35:52.577Z,73.30
2023-04-16T20:39:56.998Z,73.45
2023-04-16T20:44:05.186Z,74.04
2023-04-16T20:48:08.382Z,73.72
2023-04-16T20:52:11.843Z,74.14
2023-04-16T20:56:17.051Z,74.17
2023-04-16T21:00:20.434Z,74.09
2023-04-16T21:04:23.562Z,74.21
2023-04-16T21:08:26.674Z,74.58
2023-04-16T21:12:31.040Z,74.30
2023-04-16T21:16:34.188Z,74.27
2023-04-16T21:20:37.853Z,74.98
2023-04-16T21:24:40.905Z,74.69
2023-04-16T21:28:45.424Z,74.97
2023-04-16T21:32:48.622Z,74.85
2023-04-16T21:36:51.700Z,74.80
2023-04-16T21:40:55.660Z,75.01
2023-04-16T21:45:00.417Z,74.82
2023-04-16T21:49:03.857Z,74.87
2023-04-16T21:53:07.311Z,75.21
2023-04-16T21:57:10.405Z,75.00
2023-04-16T22:01:14.859Z,75.16
2023-04-16T22:05:19.923Z,75.19
2023-04-16T22:09:24.844Z,75.26
2023-04-16T22:13:29.935Z,75.35
2023-04-16T22:17:34.530Z,75.26
2023-04-16T22:21:37.803Z,75.50
2023-04-16T22:25:40.954Z,75.54
2023-04-16T22:29:44.067Z,75.64
2023-04-16T22:33:48.458Z,76.17
2023-04-16T22:37:51.536Z,76.45
2023-04-16T22:41:54.701Z,76.08
2023-04-16T22:46:04.865Z,76.40
2023-04-16T22:50:11.031Z,76.44
2023-04-16T22:54:14.302Z,76.48
2023-04-16T22:58:17.966Z,76.34
2023-04-16T23:02:21.233Z,76.36
2023-04-16T23:06:26.802Z,76.48
2023-04-16T23:10:29.861Z,76.66
2023-04-16T23:14:32.889Z,76.89
2023-04-16T23:18:36.694Z,76.76
2023-04-16T23:22:41.911Z,76.71
2023-04-16T23:26:44.951Z,76.95
2023-04-16T23:30:47.964Z,76.58
2023-04-16T23:34:51.070Z,77.06
2023-04-16T23:38:55.553Z,77.07
2023-04-16T23:42:58.610Z,77.06
2023-04-16T23:47:01.687Z,77.40
2023-04-16T23:51:05.202Z,77.18
2023-04-16T23:55:10.239Z,77.44
2023-04-16T23:59:13.563Z,77.56
